Time;durP1;ratioP1;P1;durP2;ratioP2;P2;SDS_P1;SDS_P2;PMS_P1;PMS_P2;Temp;Humidity;BMP_temperature;BMP_pressure;BME280_temperature;BME280_humidity;BME280_pressure;Samples;Min_cycle;Max_cycle;Signal;HPM_P1;HPM_P2
2022/07/31 10:32:49;;;;;;;14.93;7.60;;;;;;;;;;5259276;25;20086;-63
2022/07/31 10:35:16;;;;;;;14.95;7.88;;;;;;;;;;3315748;35;20145;-60
2022/07/31 10:37:44;;;;;;;14.35;7.50;;;;;;;;;;3323642;42;20129;-61
2022/07/31 10:40:58;;;;;;;14.40;7.68;;;;;;;;;;3325561;42;20101;-63
2022/07/31 10:43:27;;;;;;;14.87;7.50;;;;;;;;;;3286914;43;20147;-64
2022/07/31 10:45:54;;;;;;;17.05;7.50;;;;;;;;;;3312987;42;20133;-65
2022/07/31 10:48:21;;;;;;;13.23;7.63;;;;;;;;;;3323683;42;20093;-63
2022/07/31 10:50:48;;;;;;;16.85;7.65;;;;;;;;;;3332659;42;20093;-62
2022/07/31 10:53:16;;;;;;;18.98;8.18;;;;;;;;;;3332684;42;20197;-64
2022/07/31 10:55:42;;;;;;;11.63;7.07;;;;;;;;;;3325479;42;20093;-63
2022/07/31 10:58:14;;;;;;;12.55;7.18;;;;;;;;;;3326652;42;20131;-65
2022/07/31 11:00:41;;;;;;;12.98;7.60;;;;;;;;;;3326787;42;20198;-64
2022/07/31 11:03:14;;;;;;;14.02;7.82;;;;;;;;;;3332942;42;20555;-65
2022/07/31 11:05:51;;;;;;;14.50;8.02;;;;;;;;;;3325519;42;20111;-64
2022/07/31 11:08:17;;;;;;;14.33;7.37;;;;;;;;;;3325093;42;20141;-63
2022/07/31 11:10:52;;;;;;;12.18;7.10;;;;;;;;;;3325226;42;20101;-64
2022/07/31 11:13:18;;;;;;;13.80;7.65;;;;;;;;;;3332150;42;20089;-64
2022/07/31 11:15:44;;;;;;;14.48;7.50;;;;;;;;;;3331034;42;20097;-63
2022/07/31 11:18:23;;;;;;;14.77;7.72;;;;;;;;;;3324264;42;20146;-63
2022/07/31 11:21:02;;;;;;;13.23;7.47;;;;;;;;;;3324040;42;20567;-65
2022/07/31 11:23:29;;;;;;;13.75;7.50;;;;;;;;;;3332431;42;20499;-64
2022/07/31 11:26:00;;;;;;;12.25;7.28;;;;;;;;;;3332107;42;20131;-64
2022/07/31 11:28:27;;;;;;;11.73;6.32;;;;;;;;;;3332749;42;20085;-64
2022/07/31 11:30:58;;;;;;;13.73;7.07;;;;;;;;;;3324705;42;20105;-65
2022/07/31 11:33:39;;;;;;;14.97;6.80;;;;;;;;;;3331231;42;20144;-63
2022/07/31 11:36:07;;;;;;;11.82;7.07;;;;;;;;;;3324998;42;20081;-65
2022/07/31 11:38:34;;;;;;;12.88;7.05;;;;;;;;;;3317711;42;20104;-65
2022/07/31 11:41:00;;;;;;;14.35;6.95;;;;;;;;;;3318019;42;20101;-64
2022/07/31 11:43:27;;;;;;;12.02;6.82;;;;;;;;;;3325370;42;20101;-63
2022/07/31 11:45:53;;;;;;;11.60;6.60;;;;;;;;;;3311194;42;20136;-62
2022/07/31 11:48:20;;;;;;;12.40;7.00;;;;;;;;;;3325263;42;20558;-63
2022/07/31 11:50:47;;;;;;;14.02;6.63;;;;;;;;;;3324903;42;20093;-63
2022/07/31 11:53:13;;;;;;;12.80;6.30;;;;;;;;;;3317865;42;20142;-64
2022/07/31 11:55:59;;;;;;;11.60;6.20;;;;;;;;;;3324664;42;20499;-64
2022/07/31 11:58:27;;;;;;;11.47;6.20;;;;;;;;;;3324008;42;20503;-63
2022/07/31 12:00:54;;;;;;;12.45;6.60;;;;;;;;;;3331538;42;20085;-64
2022/07/31 12:03:22;;;;;;;10.95;5.95;;;;;;;;;;3332864;42;20104;-63
2022/07/31 12:05:51;;;;;;;11.80;6.60;;;;;;;;;;3323397;42;20089;-63
2022/07/31 12:08:17;;;;;;;11.88;6.32;;;;;;;;;;3331925;42;20267;-64
2022/07/31 12:10:44;;;;;;;12.40;6.73;;;;;;;;;;3316485;42;20167;-64
2022/07/31 12:13:14;;;;;;;15.65;7.60;;;;;;;;;;3324436;42;20115;-61
2022/07/31 12:15:41;;;;;;;12.98;7.20;;;;;;;;;;3331582;42;20101;-62
2022/07/31 12:18:07;;;;;;;13.80;6.97;;;;;;;;;;3317030;42;20089;-64
2022/07/31 12:20:33;;;;;;;14.38;6.90;;;;;;;;;;3316536;42;20236;-64
2022/07/31 12:23:00;;;;;;;15.80;6.77;;;;;;;;;;3317940;42;20093;-64
2022/07/31 12:25:26;;;;;;;14.07;7.00;;;;;;;;;;3332772;42;20127;-64
2022/07/31 12:27:53;;;;;;;12.07;6.93;;;;;;;;;;3315809;42;20089;-63
2022/07/31 12:30:23;;;;;;;11.50;6.75;;;;;;;;;;3331070;42;20140;-63
2022/07/31 12:32:52;;;;;;;16.15;7.53;;;;;;;;;;3331553;42;20107;-64
2022/07/31 12:35:18;;;;;;;12.27;7.10;;;;;;;;;;3324564;42;20089;-63
2022/07/31 12:37:46;;;;;;;13.13;7.10;;;;;;;;;;3324624;42;20093;-64
2022/07/31 12:40:25;;;;;;;12.32;7.00;;;;;;;;;;3317636;42;20081;-63
2022/07/31 12:42:52;;;;;;;15.27;6.80;;;;;;;;;;3324438;42;20472;-64
2022/07/31 12:45:47;;;;;;;13.02;6.18;;;;;;;;;;3324718;42;20494;-64
2022/07/31 12:48:14;;;;;;;14.43;6.97;;;;;;;;;;3325732;42;20661;-63
2022/07/31 12:50:40;;;;;;;11.77;6.20;;;;;;;;;;3324771;42;20097;-63
2022/07/31 12:53:06;;;;;;;12.10;6.30;;;;;;;;;;3324718;42;20519;-64
2022/07/31 12:55:33;;;;;;;11.13;5.78;;;;;;;;;;3331567;42;20123;-63
2022/07/31 12:57:59;;;;;;;10.95;6.20;;;;;;;;;;3339259;42;20586;-64
2022/07/31 13:00:26;;;;;;;12.70;6.37;;;;;;;;;;3324698;42;20698;-65
2022/07/31 13:02:53;;;;;;;11.88;6.50;;;;;;;;;;3331925;42;20085;-63
2022/07/31 13:05:20;;;;;;;11.48;6.35;;;;;;;;;;3324540;42;20112;-64
2022/07/31 13:07:46;;;;;;;12.95;6.45;;;;;;;;;;3324252;42;20092;-65
2022/07/31 13:10:13;;;;;;;11.57;5.90;;;;;;;;;;3317041;42;20136;-63
2022/07/31 13:12:39;;;;;;;11.97;6.43;;;;;;;;;;3324193;42;20233;-64
2022/07/31 13:15:05;;;;;;;11.65;6.57;;;;;;;;;;3317245;42;20093;-64
2022/07/31 13:17:32;;;;;;;13.90;6.82;;;;;;;;;;3324373;42;20085;-64
2022/07/31 13:19:58;;;;;;;17.80;5.97;;;;;;;;;;3331765;42;20108;-63
2022/07/31 13:22:24;;;;;;;13.52;6.32;;;;;;;;;;3331769;42;20089;-64
2022/07/31 13:24:50;;;;;;;12.90;6.33;;;;;;;;;;3331377;42;20167;-64
2022/07/31 13:27:17;;;;;;;15.13;6.45;;;;;;;;;;3331556;42;20085;-64
2022/07/31 13:29:44;;;;;;;12.98;6.40;;;;;;;;;;3324088;42;20093;-64
2022/07/31 13:32:10;;;;;;;12.32;6.47;;;;;;;;;;3317213;42;20107;-63
2022/07/31 13:34:36;;;;;;;12.57;6.30;;;;;;;;;;3317086;42;20089;-63
2022/07/31 13:37:03;;;;;;;12.27;6.17;;;;;;;;;;3325533;42;20121;-63
2022/07/31 13:39:29;;;;;;;12.07;6.13;;;;;;;;;;3324327;42;20084;-63
2022/07/31 13:41:55;;;;;;;11.32;6.15;;;;;;;;;;3323971;42;20093;-63
2022/07/31 13:44:21;;;;;;;9.88;5.63;;;;;;;;;;3331276;42;20097;-63
2022/07/31 13:46:48;;;;;;;15.90;6.00;;;;;;;;;;3331551;42;20104;-63
2022/07/31 13:49:14;;;;;;;10.70;5.87;;;;;;;;;;3324252;42;20476;-64
2022/07/31 13:51:40;;;;;;;11.57;6.05;;;;;;;;;;3331401;42;20089;-63
2022/07/31 13:54:06;;;;;;;15.80;6.28;;;;;;;;;;3323780;42;20613;-64
2022/07/31 13:56:33;;;;;;;13.40;6.35;;;;;;;;;;3324132;42;20093;-62
2022/07/31 13:58:59;;;;;;;13.43;6.63;;;;;;;;;;3324214;42;20189;-64
2022/07/31 14:01:25;;;;;;;17.57;6.40;;;;;;;;;;3323889;42;20600;-64
2022/07/31 14:03:51;;;;;;;10.18;5.93;;;;;;;;;;3324076;42;20104;-63
2022/07/31 14:06:18;;;;;;;12.90;6.35;;;;;;;;;;3331083;42;20107;-63
2022/07/31 14:08:44;;;;;;;10.75;5.60;;;;;;;;;;3324521;42;20097;-63
2022/07/31 14:11:10;;;;;;;11.40;5.72;;;;;;;;;;3325162;42;20103;-63
2022/07/31 14:13:37;;;;;;;9.63;5.80;;;;;;;;;;3324055;42;20168;-63
2022/07/31 14:16:03;;;;;;;14.48;6.10;;;;;;;;;;3324021;42;20093;-63
2022/07/31 14:18:30;;;;;;;14.85;7.22;;;;;;;;;;3331379;42;20101;-64
2022/07/31 14:20:56;;;;;;;12.35;5.93;;;;;;;;;;3323919;42;20112;-64
2022/07/31 14:23:23;;;;;;;10.55;6.15;;;;;;;;;;3323425;42;20101;-63
2022/07/31 14:25:49;;;;;;;11.87;5.80;;;;;;;;;;3330827;42;20515;-63
2022/07/31 14:28:15;;;;;;;12.40;5.82;;;;;;;;;;3331243;42;20093;-63
2022/07/31 14:30:45;;;;;;;11.50;5.75;;;;;;;;;;3323776;42;20180;-63
2022/07/31 14:33:12;;;;;;;12.50;6.13;;;;;;;;;;3323736;42;20113;-63
2022/07/31 14:35:40;;;;;;;13.05;6.47;;;;;;;;;;3323502;42;20101;-63
2022/07/31 14:38:06;;;;;;;12.83;6.40;;;;;;;;;;3331048;42;20562;-62
2022/07/31 14:40:32;;;;;;;14.43;5.88;;;;;;;;;;3323834;42;20097;-64
2022/07/31 14:42:58;;;;;;;9.80;5.60;;;;;;;;;;3323686;42;20093;-63
2022/07/31 14:45:25;;;;;;;10.45;5.85;;;;;;;;;;3316580;42;20599;-63
2022/07/31 14:47:51;;;;;;;11.13;5.97;;;;;;;;;;3323874;42;20172;-63
2022/07/31 14:50:17;;;;;;;11.67;6.20;;;;;;;;;;3323759;42;20530;-63
2022/07/31 14:52:43;;;;;;;12.23;5.80;;;;;;;;;;3323755;42;20085;-63
2022/07/31 14:55:10;;;;;;;13.90;6.30;;;;;;;;;;3330934;42;20112;-62
2022/07/31 14:57:36;;;;;;;12.20;5.85;;;;;;;;;;3330806;42;20164;-64
2022/07/31 15:00:11;;;;;;;14.45;5.95;;;;;;;;;;3323773;42;20145;-63
2022/07/31 15:02:38;;;;;;;12.50;7.10;;;;;;;;;;3330689;42;20589;-62
2022/07/31 15:05:05;;;;;;;12.80;6.90;;;;;;;;;;3323396;42;20127;-63
2022/07/31 15:07:31;;;;;;;13.13;6.70;;;;;;;;;;3316241;42;20093;-63
2022/07/31 15:09:58;;;;;;;13.02;6.80;;;;;;;;;;3323620;42;20093;-63
2022/07/31 15:12:24;;;;;;;12.05;7.10;;;;;;;;;;3330819;42;20167;-63
2022/07/31 15:14:50;;;;;;;13.30;7.00;;;;;;;;;;3323202;42;20088;-63
2022/07/31 15:17:16;;;;;;;14.55;7.00;;;;;;;;;;3323508;42;20096;-64
2022/07/31 15:19:42;;;;;;;15.10;7.28;;;;;;;;;;3323578;42;20595;-62
2022/07/31 15:22:09;;;;;;;13.98;7.50;;;;;;;;;;3323385;42;20104;-63
2022/07/31 15:24:35;;;;;;;16.02;7.47;;;;;;;;;;3323563;42;20657;-63
2022/07/31 15:27:01;;;;;;;14.13;7.30;;;;;;;;;;3323667;42;20100;-62
2022/07/31 15:29:27;;;;;;;13.20;6.95;;;;;;;;;;3330671;42;20101;-63
2022/07/31 15:31:53;;;;;;;13.05;7.20;;;;;;;;;;3323124;42;20093;-63
2022/07/31 15:34:20;;;;;;;14.63;7.18;;;;;;;;;;3330572;42;20123;-63
2022/07/31 15:36:46;;;;;;;15.90;7.55;;;;;;;;;;3324900;42;20101;-63
2022/07/31 15:39:13;;;;;;;13.57;6.97;;;;;;;;;;3318055;42;20105;-63
2022/07/31 15:41:39;;;;;;;14.75;7.05;;;;;;;;;;3332399;42;20097;-63
2022/07/31 15:44:06;;;;;;;14.38;7.50;;;;;;;;;;3332436;42;20172;-63
2022/07/31 15:46:32;;;;;;;16.35;7.78;;;;;;;;;;3332192;42;20105;-63
2022/07/31 15:48:58;;;;;;;31.08;8.02;;;;;;;;;;3324866;42;20093;-64
2022/07/31 15:51:24;;;;;;;25.07;8.47;;;;;;;;;;3325404;42;20105;-64
2022/07/31 15:53:51;;;;;;;17.60;7.95;;;;;;;;;;3332219;42;20100;-64
2022/07/31 15:56:17;;;;;;;18.80;9.55;;;;;;;;;;3317565;42;20152;-63
2022/07/31 15:58:43;;;;;;;17.23;8.65;;;;;;;;;;3317692;42;20103;-63
2022/07/31 16:01:09;;;;;;;17.83;8.43;;;;;;;;;;3325053;42;20136;-63
2022/07/31 16:03:36;;;;;;;16.93;9.03;;;;;;;;;;3324885;42;20124;-63
2022/07/31 16:06:02;;;;;;;18.50;8.50;;;;;;;;;;3325074;42;20100;-64
2022/07/31 16:08:28;;;;;;;17.75;9.15;;;;;;;;;;3324946;42;20085;-67
2022/07/31 16:10:55;;;;;;;20.50;9.00;;;;;;;;;;3324900;42;20101;-63
2022/07/31 16:13:22;;;;;;;16.60;8.40;;;;;;;;;;3317579;42;20196;-63
2022/07/31 16:15:48;;;;;;;16.60;7.83;;;;;;;;;;3331618;42;20093;-64
2022/07/31 16:18:14;;;;;;;15.25;8.27;;;;;;;;;;3324490;42;20092;-64
2022/07/31 16:20:41;;;;;;;13.07;7.38;;;;;;;;;;3332120;42;20216;-62
2022/07/31 16:23:07;;;;;;;14.60;7.68;;;;;;;;;;3324971;42;20551;-61
2022/07/31 16:25:33;;;;;;;14.32;7.97;;;;;;;;;;3332236;42;20167;-62
2022/07/31 16:27:59;;;;;;;12.87;7.07;;;;;;;;;;3324744;42;20167;-61
2022/07/31 16:30:26;;;;;;;15.55;7.63;;;;;;;;;;3324665;42;20611;-62
2022/07/31 16:32:53;;;;;;;13.70;7.35;;;;;;;;;;3331684;42;20097;-62
2022/07/31 16:35:19;;;;;;;13.15;7.00;;;;;;;;;;3317530;42;20101;-63
2022/07/31 16:37:45;;;;;;;14.40;7.63;;;;;;;;;;3319411;42;20167;-61
2022/07/31 16:40:12;;;;;;;15.67;7.17;;;;;;;;;;3328957;42;20088;-63
2022/07/31 16:42:38;;;;;;;13.95;7.00;;;;;;;;;;3333415;42;20558;-62
2022/07/31 16:45:05;;;;;;;15.32;8.20;;;;;;;;;;3332737;42;20097;-62
2022/07/31 16:47:31;;;;;;;16.67;7.60;;;;;;;;;;3326869;42;20623;-61
2022/07/31 16:49:57;;;;;;;17.30;7.60;;;;;;;;;;3327855;42;20610;-61
2022/07/31 16:52:24;;;;;;;18.03;7.90;;;;;;;;;;3329132;42;20136;-62
2022/07/31 16:54:50;;;;;;;19.85;8.50;;;;;;;;;;3331651;42;20164;-66
2022/07/31 16:57:18;;;;;;;20.50;8.70;;;;;;;;;;3332845;42;20202;-63
2022/07/31 16:59:44;;;;;;;19.30;7.88;;;;;;;;;;3332887;42;20088;-62
2022/07/31 17:02:11;;;;;;;24.23;9.73;;;;;;;;;;3331292;42;20119;-63
2022/07/31 17:04:37;;;;;;;22.37;9.80;;;;;;;;;;3328258;42;20195;-64
2022/07/31 17:07:04;;;;;;;17.88;9.23;;;;;;;;;;3328277;42;20096;-63
2022/07/31 17:09:31;;;;;;;16.02;9.07;;;;;;;;;;3326017;42;20562;-61
2022/07/31 17:11:57;;;;;;;18.38;9.23;;;;;;;;;;3332901;42;20549;-63
2022/07/31 17:14:24;;;;;;;15.90;8.27;;;;;;;;;;3330319;42;20089;-63
2022/07/31 17:16:51;;;;;;;16.80;8.30;;;;;;;;;;3330318;42;20108;-64
2022/07/31 17:19:19;;;;;;;16.80;8.85;;;;;;;;;;3321809;42;20097;-63
2022/07/31 17:21:45;;;;;;;16.75;8.05;;;;;;;;;;3317963;42;20557;-62
2022/07/31 17:24:11;;;;;;;17.08;8.50;;;;;;;;;;3324146;42;20564;-63
2022/07/31 17:26:38;;;;;;;16.05;8.30;;;;;;;;;;3316552;42;20149;-64
2022/07/31 17:29:04;;;;;;;16.10;8.07;;;;;;;;;;3323949;42;20567;-63
2022/07/31 17:31:30;;;;;;;15.50;8.50;;;;;;;;;;3323535;42;20568;-64
2022/07/31 17:33:57;;;;;;;20.60;10.32;;;;;;;;;;3323619;42;20101;-63
2022/07/31 17:36:23;;;;;;;16.88;8.40;;;;;;;;;;3324235;42;20100;-62
2022/07/31 17:38:49;;;;;;;16.38;8.30;;;;;;;;;;3325459;42;20085;-62
2022/07/31 17:41:15;;;;;;;17.67;8.00;;;;;;;;;;3340068;42;20100;-63
2022/07/31 17:43:41;;;;;;;18.52;8.50;;;;;;;;;;3339808;42;20148;-63
2022/07/31 17:46:07;;;;;;;17.63;8.45;;;;;;;;;;3332358;42;20108;-64
2022/07/31 17:48:34;;;;;;;14.93;8.40;;;;;;;;;;3325586;42;20088;-63
2022/07/31 17:51:00;;;;;;;16.17;8.32;;;;;;;;;;3332729;42;20471;-63
2022/07/31 17:53:26;;;;;;;18.47;8.30;;;;;;;;;;3340217;42;20175;-62
2022/07/31 17:55:53;;;;;;;19.50;9.02;;;;;;;;;;3332617;42;20097;-63
2022/07/31 17:58:19;;;;;;;17.42;8.80;;;;;;;;;;3332415;42;20151;-63
2022/07/31 18:00:45;;;;;;;23.55;9.10;;;;;;;;;;3332740;42;20104;-62
2022/07/31 18:03:11;;;;;;;18.05;8.57;;;;;;;;;;3340002;42;20116;-64
2022/07/31 18:05:37;;;;;;;15.90;8.33;;;;;;;;;;3339586;42;20155;-63
2022/07/31 18:08:04;;;;;;;21.83;8.55;;;;;;;;;;3331879;42;20104;-63
2022/07/31 18:10:30;;;;;;;20.95;8.60;;;;;;;;;;3322375;42;20108;-64
2022/07/31 18:12:58;;;;;;;17.70;8.55;;;;;;;;;;3331135;42;20101;-63
2022/07/31 18:15:24;;;;;;;17.83;8.25;;;;;;;;;;3331140;42;20097;-63
2022/07/31 18:17:53;;;;;;;17.07;8.50;;;;;;;;;;3323959;42;20200;-64
2022/07/31 18:20:20;;;;;;;19.70;8.70;;;;;;;;;;3338652;42;20111;-62
2022/07/31 18:22:47;;;;;;;18.70;8.20;;;;;;;;;;3331281;42;20562;-64
2022/07/31 18:25:13;;;;;;;23.30;8.43;;;;;;;;;;3331262;42;20093;-64
2022/07/31 18:27:40;;;;;;;15.77;8.32;;;;;;;;;;3331314;42;20089;-62
2022/07/31 18:30:09;;;;;;;17.07;8.07;;;;;;;;;;3331075;42;20101;-62
2022/07/31 18:32:35;;;;;;;15.65;8.48;;;;;;;;;;3338671;42;20610;-63
2022/07/31 18:35:01;;;;;;;16.00;8.82;;;;;;;;;;3316244;42;20119;-64
2022/07/31 18:37:28;;;;;;;16.30;8.98;;;;;;;;;;3322971;42;20112;-63
2022/07/31 18:39:55;;;;;;;21.23;8.80;;;;;;;;;;3338069;42;20092;-62
2022/07/31 18:42:22;;;;;;;18.33;8.47;;;;;;;;;;3337726;42;20089;-62
2022/07/31 18:44:50;;;;;;;16.75;8.45;;;;;;;;;;3323892;42;20180;-62
2022/07/31 18:47:16;;;;;;;17.33;9.10;;;;;;;;;;3323737;42;20100;-63
2022/07/31 18:49:42;;;;;;;17.52;8.90;;;;;;;;;;3338251;42;20108;-63
2022/07/31 18:52:08;;;;;;;16.95;8.57;;;;;;;;;;3331296;42;20089;-63
2022/07/31 18:54:35;;;;;;;17.67;9.27;;;;;;;;;;3323752;42;20108;-63
2022/07/31 18:57:03;;;;;;;17.05;8.63;;;;;;;;;;3338438;42;20096;-62
2022/07/31 18:59:29;;;;;;;15.85;8.52;;;;;;;;;;3338314;42;20097;-63
2022/07/31 19:01:56;;;;;;;17.98;8.77;;;;;;;;;;3338196;42;20590;-63
2022/07/31 19:04:22;;;;;;;19.27;9.73;;;;;;;;;;3324018;42;20108;-62
2022/07/31 19:06:48;;;;;;;18.37;9.40;;;;;;;;;;3323918;42;20097;-62
2022/07/31 19:09:16;;;;;;;20.20;9.40;;;;;;;;;;3323700;42;20634;-63
2022/07/31 19:11:43;;;;;;;20.25;8.65;;;;;;;;;;3324883;42;20101;-64
2022/07/31 19:14:09;;;;;;;19.77;8.73;;;;;;;;;;3325347;42;20496;-62
2022/07/31 19:16:35;;;;;;;17.20;8.90;;;;;;;;;;3325309;42;20097;-64
2022/07/31 19:19:01;;;;;;;19.40;8.83;;;;;;;;;;3332419;42;20097;-64
2022/07/31 19:21:27;;;;;;;22.77;9.05;;;;;;;;;;3332509;42;20100;-63
2022/07/31 19:23:53;;;;;;;22.48;8.90;;;;;;;;;;3325163;42;20164;-63
2022/07/31 19:26:20;;;;;;;19.17;8.95;;;;;;;;;;3325441;42;20101;-63
2022/07/31 19:28:46;;;;;;;19.48;8.63;;;;;;;;;;3332528;42;20115;-65
2022/07/31 19:31:12;;;;;;;22.67;9.33;;;;;;;;;;3332703;42;20168;-63
2022/07/31 19:33:38;;;;;;;19.08;8.70;;;;;;;;;;3332434;42;20097;-64
2022/07/31 19:36:05;;;;;;;22.35;9.55;;;;;;;;;;3325197;42;20081;-63
2022/07/31 19:38:31;;;;;;;17.00;8.55;;;;;;;;;;3325297;42;20187;-63
2022/07/31 19:40:58;;;;;;;17.38;9.05;;;;;;;;;;3332338;42;20506;-65
2022/07/31 19:43:24;;;;;;;16.90;8.93;;;;;;;;;;3332345;42;20097;-65
2022/07/31 19:45:50;;;;;;;18.13;8.75;;;;;;;;;;3332462;42;20259;-64
2022/07/31 19:48:17;;;;;;;17.70;8.73;;;;;;;;;;3332480;42;20097;-64
2022/07/31 19:50:43;;;;;;;19.65;8.80;;;;;;;;;;3332191;42;20112;-65
2022/07/31 19:53:09;;;;;;;21.38;9.90;;;;;;;;;;3339179;42;20101;-63
2022/07/31 19:55:35;;;;;;;18.87;8.93;;;;;;;;;;3332184;42;20601;-63
2022/07/31 19:58:01;;;;;;;18.83;9.38;;;;;;;;;;3326172;42;20088;-64
2022/07/31 20:00:27;;;;;;;18.42;9.20;;;;;;;;;;3326573;42;20089;-64
2022/07/31 20:02:54;;;;;;;17.77;9.23;;;;;;;;;;3328036;42;20149;-63
2022/07/31 20:05:20;;;;;;;19.45;9.15;;;;;;;;;;3329698;42;20103;-63
2022/07/31 20:07:47;;;;;;;17.13;9.17;;;;;;;;;;3333052;42;20143;-64
2022/07/31 20:10:13;;;;;;;18.05;9.40;;;;;;;;;;3328407;42;20191;-62
2022/07/31 20:12:39;;;;;;;19.90;9.60;;;;;;;;;;3328399;42;20164;-63
2022/07/31 20:15:07;;;;;;;19.38;9.52;;;;;;;;;;3329636;42;20298;-63
2022/07/31 20:17:33;;;;;;;21.25;10.20;;;;;;;;;;3334051;42;20575;-64
2022/07/31 20:19:59;;;;;;;18.53;10.17;;;;;;;;;;3333934;42;20128;-63
2022/07/31 20:22:26;;;;;;;16.85;9.40;;;;;;;;;;3333648;42;20190;-63
2022/07/31 20:24:52;;;;;;;19.63;10.15;;;;;;;;;;3334324;42;20096;-64
2022/07/31 20:27:18;;;;;;;21.23;11.45;;;;;;;;;;3333803;42;20559;-63
2022/07/31 20:29:44;;;;;;;24.10;11.40;;;;;;;;;;3333914;42;20096;-65
2022/07/31 20:32:11;;;;;;;21.17;10.73;;;;;;;;;;3333765;42;20498;-63
2022/07/31 20:34:37;;;;;;;23.88;10.80;;;;;;;;;;3333527;42;20092;-63
2022/07/31 20:37:03;;;;;;;19.65;10.50;;;;;;;;;;3333957;42;20085;-63
2022/07/31 20:39:29;;;;;;;17.98;9.90;;;;;;;;;;3333764;42;20085;-65
2022/07/31 20:41:56;;;;;;;19.73;10.15;;;;;;;;;;3333654;42;20148;-64
2022/07/31 20:44:22;;;;;;;21.43;11.33;;;;;;;;;;3333749;42;20100;-63
2022/07/31 20:46:48;;;;;;;20.35;10.18;;;;;;;;;;3333418;42;20155;-66
2022/07/31 20:49:14;;;;;;;18.58;9.50;;;;;;;;;;3333782;42;20100;-63
2022/07/31 20:51:40;;;;;;;23.35;10.20;;;;;;;;;;3326202;42;20093;-63
2022/07/31 20:54:06;;;;;;;20.73;10.27;;;;;;;;;;3333278;42;20092;-63
2022/07/31 20:56:33;;;;;;;19.63;10.90;;;;;;;;;;3326331;42;20135;-63
2022/07/31 20:58:59;;;;;;;22.35;10.95;;;;;;;;;;3333190;42;20487;-63
2022/07/31 21:01:25;;;;;;;22.38;11.10;;;;;;;;;;3326247;42;20092;-62
2022/07/31 21:03:51;;;;;;;21.38;10.52;;;;;;;;;;3333381;42;20148;-63
2022/07/31 21:06:20;;;;;;;20.27;10.65;;;;;;;;;;3333449;42;20084;-63
2022/07/31 21:08:46;;;;;;;19.17;9.97;;;;;;;;;;3326014;42;20186;-62
2022/07/31 21:11:13;;;;;;;22.92;10.50;;;;;;;;;;3333398;42;20244;-64
2022/07/31 21:13:40;;;;;;;16.75;9.38;;;;;;;;;;3333028;42;20570;-62
2022/07/31 21:16:06;;;;;;;20.05;10.27;;;;;;;;;;3332994;42;20622;-63
2022/07/31 21:18:33;;;;;;;18.45;9.80;;;;;;;;;;3333109;42;20080;-63
2022/07/31 21:20:59;;;;;;;18.60;10.40;;;;;;;;;;3333144;42;20148;-63
2022/07/31 21:23:25;;;;;;;21.95;10.25;;;;;;;;;;3332872;42;20586;-63
2022/07/31 21:25:55;;;;;;;19.73;10.43;;;;;;;;;;3333128;42;20093;-63
2022/07/31 21:28:22;;;;;;;19.17;9.90;;;;;;;;;;3333135;42;20080;-63
2022/07/31 21:30:48;;;;;;;20.70;10.23;;;;;;;;;;3333087;42;20774;-64
2022/07/31 21:33:15;;;;;;;21.37;10.20;;;;;;;;;;3332707;42;20097;-62
2022/07/31 21:35:42;;;;;;;19.42;9.85;;;;;;;;;;3333048;42;20081;-63
2022/07/31 21:38:13;;;;;;;19.80;9.48;;;;;;;;;;3340022;42;20204;-64
2022/07/31 21:40:40;;;;;;;21.15;9.93;;;;;;;;;;3332777;42;20517;-63
2022/07/31 21:43:07;;;;;;;20.55;10.20;;;;;;;;;;3333025;42;20121;-63
2022/07/31 21:45:33;;;;;;;19.53;10.50;;;;;;;;;;3333000;42;20497;-62
2022/07/31 21:48:00;;;;;;;20.25;10.25;;;;;;;;;;3325829;42;20089;-62
2022/07/31 21:50:26;;;;;;;20.50;10.02;;;;;;;;;;3325773;42;20909;-62
2022/07/31 21:52:53;;;;;;;20.95;10.30;;;;;;;;;;3337296;42;20097;-63
2022/07/31 21:55:19;;;;;;;20.50;10.27;;;;;;;;;;3323939;42;20140;-63
2022/07/31 21:57:45;;;;;;;19.43;9.80;;;;;;;;;;3323890;42;20163;-63
2022/07/31 22:00:11;;;;;;;20.35;10.52;;;;;;;;;;3324189;42;20160;-64
2022/07/31 22:02:38;;;;;;;20.52;10.10;;;;;;;;;;3325120;42;20559;-63
2022/07/31 22:07:50;;;;;;;20.27;9.85;;;;;;;;;;3324047;42;20097;-64
2022/07/31 22:10:17;;;;;;;20.23;10.23;;;;;;;;;;3317217;42;20638;-64
2022/07/31 22:12:44;;;;;;;19.45;9.80;;;;;;;;;;3317174;42;20107;-63
2022/07/31 22:15:10;;;;;;;24.23;10.38;;;;;;;;;;3317216;42;20085;-64
2022/07/31 22:17:37;;;;;;;19.00;10.40;;;;;;;;;;3316966;42;20093;-62
2022/07/31 22:20:05;;;;;;;18.80;10.07;;;;;;;;;;3323945;42;20089;-63
2022/07/31 22:22:32;;;;;;;19.07;9.93;;;;;;;;;;3324058;42;20093;-65
2022/07/31 22:24:59;;;;;;;23.00;10.05;;;;;;;;;;3316307;42;20097;-64
2022/07/31 22:30:10;;;;;;;22.02;9.57;;;;;;;;;;3323979;42;20103;-63
2022/07/31 22:32:37;;;;;;;20.30;9.88;;;;;;;;;;3323874;42;20093;-65
2022/07/31 22:35:04;;;;;;;20.13;9.80;;;;;;;;;;3323329;42;20775;-64
2022/07/31 22:37:30;;;;;;;19.38;9.38;;;;;;;;;;3316650;42;20551;-63
2022/07/31 22:39:59;;;;;;;19.50;10.65;;;;;;;;;;3323459;42;20116;-65
2022/07/31 22:42:29;;;;;;;20.58;10.55;;;;;;;;;;3316858;42;20089;-63
2022/07/31 22:44:55;;;;;;;19.30;10.02;;;;;;;;;;3331423;42;20144;-63
2022/07/31 22:47:23;;;;;;;21.00;9.53;;;;;;;;;;3318330;42;20103;-64
2022/07/31 22:49:49;;;;;;;19.50;10.00;;;;;;;;;;3325632;42;20093;-64
2022/07/31 22:52:15;;;;;;;20.33;9.68;;;;;;;;;;3325501;42;20100;-63
2022/07/31 22:54:45;;;;;;;16.90;9.32;;;;;;;;;;3325401;42;20100;-64
2022/07/31 22:57:11;;;;;;;20.67;10.70;;;;;;;;;;3324758;42;20108;-65
2022/07/31 22:59:38;;;;;;;18.30;9.60;;;;;;;;;;3325019;42;20157;-63
2022/07/31 23:02:04;;;;;;;20.38;9.15;;;;;;;;;;3325709;42;20568;-63
2022/07/31 23:04:30;;;;;;;17.52;9.90;;;;;;;;;;3316929;42;20174;-65
2022/07/31 23:06:56;;;;;;;19.00;9.90;;;;;;;;;;3317730;42;20101;-64
2022/07/31 23:09:22;;;;;;;18.52;9.45;;;;;;;;;;3325751;42;20085;-64
2022/07/31 23:11:49;;;;;;;16.77;9.13;;;;;;;;;;3325483;42;20567;-64
2022/07/31 23:14:15;;;;;;;18.58;10.02;;;;;;;;;;3325099;42;20085;-65
2022/07/31 23:16:41;;;;;;;18.58;10.00;;;;;;;;;;3325436;42;20503;-63
2022/07/31 23:19:07;;;;;;;19.42;9.05;;;;;;;;;;3325552;42;20097;-63
2022/07/31 23:21:33;;;;;;;19.58;9.82;;;;;;;;;;3325401;42;20089;-63
2022/07/31 23:24:00;;;;;;;20.00;9.20;;;;;;;;;;3325266;42;20123;-62
2022/07/31 23:26:26;;;;;;;20.23;9.55;;;;;;;;;;3318036;42;20551;-63
2022/07/31 23:28:53;;;;;;;18.27;9.45;;;;;;;;;;3325639;42;20160;-63
2022/07/31 23:31:19;;;;;;;20.45;9.13;;;;;;;;;;3325683;42;20085;-63
2022/07/31 23:33:45;;;;;;;18.20;9.90;;;;;;;;;;3325572;42;20699;-64
2022/07/31 23:36:12;;;;;;;17.97;9.43;;;;;;;;;;3319067;42;20570;-67
2022/07/31 23:38:38;;;;;;;17.65;9.25;;;;;;;;;;3325571;42;20093;-66
2022/07/31 23:41:04;;;;;;;20.15;9.07;;;;;;;;;;3325546;42;20081;-64
2022/07/31 23:43:30;;;;;;;19.88;9.57;;;;;;;;;;3325199;42;20096;-63
2022/07/31 23:45:57;;;;;;;17.48;9.05;;;;;;;;;;3324975;42;20109;-62
2022/07/31 23:48:23;;;;;;;16.77;8.17;;;;;;;;;;3325114;42;20108;-63
2022/07/31 23:50:49;;;;;;;15.55;8.88;;;;;;;;;;3324830;42;20089;-63
2022/07/31 23:53:15;;;;;;;15.05;8.15;;;;;;;;;;3325267;42;20081;-63
2022/07/31 23:55:42;;;;;;;14.02;8.13;;;;;;;;;;3332683;42;20160;-62
2022/07/31 23:58:08;;;;;;;12.48;6.93;;;;;;;;;;3332221;42;20622;-63
